Terminal Aerodrome Forecast
Issued by NWS

Home | Current Version | Previous Version | Text Only | Print | Product List | Glossary On
Versions: 1 2 3 4 5 6 7 8 9 10 11 12 13 14 15 16 17
311
FTUS41 KBTV 231738
TAFMPV
TAF
KMPV 231738Z 2318/2418 30005KT P6SM SCT200
     FM240500 00000KT 1SM BR BKN008
     FM241100 00000KT 3SM BR BKN035
     FM241300 17003KT P6SM BKN120=

USA.gov is the U.S. government's official web portal to all federal, state and local government web resources and services.